createdAt,value
2018-02-06T00:00:17.016Z,63.78
2018-02-06T00:02:46.341Z,63.82
2018-02-06T00:05:15.122Z,64.08
2018-02-06T00:07:43.701Z,64.99
2018-02-06T00:10:12.670Z,64.58
2018-02-06T00:12:42.575Z,65.37
2018-02-06T00:15:11.370Z,64.92
2018-02-06T00:17:40.132Z,66.05
2018-02-06T00:20:09.068Z,64.89
2018-02-06T00:22:51.344Z,63.94
2018-02-06T00:25:19.827Z,64.12
2018-02-06T00:27:48.835Z,64.85
2018-02-06T00:30:18.869Z,64.62
2018-02-06T00:32:47.488Z,63.50
2018-02-06T00:35:16.107Z,64.02
2018-02-06T00:37:45.720Z,64.79
2018-02-06T00:40:14.307Z,65.32
2018-02-06T00:42:42.811Z,65.24
2018-02-06T00:45:12.310Z,63.90
2018-02-06T00:47:42.899Z,63.64
2018-02-06T00:50:11.421Z,63.92
2018-02-06T00:52:40.362Z,64.74
2018-02-06T00:55:08.984Z,64.92
2018-02-06T00:57:37.942Z,65.29
2018-02-06T01:00:06.368Z,63.41
2018-02-06T01:02:35.360Z,63.33
2018-02-06T01:05:04.721Z,64.36
2018-02-06T01:07:33.344Z,64.55
2018-02-06T01:10:03.200Z,64.87
2018-02-06T01:12:31.926Z,65.07
2018-02-06T01:15:00.647Z,65.39
2018-02-06T01:17:30.186Z,64.65
2018-02-06T01:19:59.074Z,64.76
2018-02-06T01:22:27.931Z,65.49
2018-02-06T01:24:56.759Z,65.10
2018-02-06T01:27:25.966Z,63.94
2018-02-06T01:29:55.908Z,64.73
2018-02-06T01:32:24.823Z,64.08
2018-02-06T01:34:54.848Z,64.03
2018-02-06T01:37:23.939Z,64.21
2018-02-06T01:39:52.648Z,64.34
2018-02-06T01:42:21.195Z,65.05
2018-02-06T01:44:49.978Z,64.46
2018-02-06T01:47:19.280Z,65.47
2018-02-06T01:50:05.369Z,64.98
2018-02-06T01:52:34.338Z,64.89
2018-02-06T01:55:03.976Z,65.39
2018-02-06T01:57:33.037Z,65.11
2018-02-06T02:00:01.607Z,65.88
2018-02-06T02:02:31.948Z,65.39
2018-02-06T02:05:01.152Z,63.73
2018-02-06T02:07:30.746Z,63.33
2018-02-06T02:10:00.219Z,65.24
2018-02-06T02:12:28.876Z,65.37
2018-02-06T02:14:58.238Z,66.16
2018-02-06T02:17:27.509Z,65.50
2018-02-06T02:19:55.972Z,65.42
2018-02-06T02:22:24.580Z,65.38
2018-02-06T02:24:53.889Z,66.03
2018-02-06T02:27:22.430Z,65.42
2018-02-06T02:29:50.859Z,65.50
2018-02-06T02:32:20.212Z,65.14
2018-02-06T02:34:48.862Z,65.70
2018-02-06T02:37:18.163Z,65.08
2018-02-06T02:39:46.587Z,66.05
2018-02-06T04:38:48.412Z,65.03
2018-02-06T04:41:16.897Z,65.04
2018-02-06T04:43:45.703Z,65.67
2018-02-06T04:46:14.187Z,64.94
2018-02-06T04:48:42.544Z,64.36
2018-02-06T04:51:11.044Z,64.93
2018-02-06T04:53:39.773Z,64.96
2018-02-06T04:56:08.228Z,65.16
2018-02-06T04:58:37.717Z,65.28
2018-02-06T05:01:08.068Z,65.13
2018-02-06T05:03:36.665Z,64.12
2018-02-06T05:06:05.973Z,64.25
2018-02-06T05:08:34.375Z,64.24
2018-02-06T05:11:03.906Z,64.42
2018-02-06T05:13:32.561Z,64.79
2018-02-06T05:16:01.131Z,64.78
2018-02-06T05:18:30.336Z,65.96
2018-02-06T05:20:59.794Z,65.44
2018-02-06T05:23:28.421Z,64.70
2018-02-06T05:25:57.728Z,64.66
2018-02-06T05:28:28.456Z,65.94
2018-02-06T05:30:57.160Z,64.65
2018-02-06T05:33:26.472Z,66.25
2018-02-06T05:35:55.286Z,65.30
2018-02-06T05:38:24.356Z,65.05
2018-02-06T05:40:54.104Z,65.02
2018-02-06T05:43:23.558Z,65.36
2018-02-06T05:45:52.459Z,65.75
2018-02-06T05:48:22.168Z,65.26
2018-02-06T05:50:51.511Z,65.50
2018-02-06T05:53:20.046Z,65.42
2018-02-06T05:55:49.397Z,65.07
2018-02-06T05:58:18.878Z,64.73
2018-02-06T06:00:49.811Z,65.26
2018-02-06T06:03:19.867Z,64.56
2018-02-06T06:05:49.055Z,65.25
2018-02-06T06:08:18.357Z,65.30
2018-02-06T06:10:47.083Z,66.06
2018-02-06T06:13:16.675Z,66.27
2018-02-06T06:15:45.859Z,65.17
2018-02-06T06:18:14.868Z,65.56
2018-02-06T06:20:45.224Z,66.14
2018-02-06T06:23:14.560Z,66.11
2018-02-06T06:25:44.094Z,66.12
2018-02-06T06:28:12.907Z,66.28
2018-02-06T06:30:41.355Z,66.42
2018-02-06T06:33:09.891Z,66.42
2018-02-06T06:35:39.040Z,65.55
2018-02-06T06:38:07.486Z,65.72
2018-02-06T06:40:36.747Z,66.09
2018-02-06T06:43:05.196Z,65.16
2018-02-06T06:45:33.668Z,65.24
2018-02-06T06:48:02.282Z,66.09
2018-02-06T06:50:31.610Z,65.52
2018-02-06T06:53:00.761Z,65.65
2018-02-06T06:55:29.106Z,65.76
2018-02-06T06:57:57.521Z,67.00
2018-02-06T07:00:25.881Z,65.80
2018-02-06T07:02:54.223Z,66.80
2018-02-06T07:05:23.356Z,66.77
2018-02-06T07:07:51.645Z,66.11
2018-02-06T07:10:20.005Z,65.27
2018-02-06T07:12:48.298Z,65.53
2018-02-06T07:15:16.607Z,66.28
2018-02-06T07:17:46.479Z,66.12
2018-02-06T07:20:14.871Z,67.28
2018-02-06T07:22:43.243Z,65.77
2018-02-06T07:25:11.588Z,65.53
2018-02-06T07:27:40.030Z,65.47
2018-02-06T07:30:08.374Z,65.60
2018-02-06T07:32:37.568Z,65.91
2018-02-06T07:35:05.967Z,65.41
2018-02-06T07:37:34.695Z,65.43
2018-02-06T07:40:03.231Z,66.36
2018-02-06T07:42:31.755Z,66.16
2018-02-06T07:45:00.104Z,66.93
2018-02-06T07:47:30.246Z,65.93
2018-02-06T07:49:58.604Z,65.59
2018-02-06T07:52:26.930Z,65.59
2018-02-06T07:54:55.269Z,65.86
2018-02-06T07:57:24.396Z,65.73
2018-02-06T07:59:52.802Z,66.04
2018-02-06T08:02:21.331Z,65.95
2018-02-06T08:04:50.851Z,65.78
2018-02-06T08:07:19.418Z,65.06
2018-02-06T08:09:47.754Z,65.54
2018-02-06T08:12:17.718Z,65.84
2018-02-06T08:14:46.040Z,65.80
2018-02-06T08:17:14.396Z,65.93
2018-02-06T08:19:42.712Z,65.23
2018-02-06T08:22:11.806Z,66.13
2018-02-06T08:24:40.973Z,66.06
2018-02-06T08:27:10.440Z,64.97
2018-02-06T08:29:38.838Z,65.18
2018-02-06T08:32:07.220Z,66.21
2018-02-06T08:34:36.786Z,66.19
2018-02-06T08:37:05.102Z,64.33
2018-02-06T08:39:33.710Z,64.83
2018-02-06T08:42:02.306Z,64.56
2018-02-06T08:44:30.663Z,64.90
2018-02-06T08:46:59.028Z,65.09
2018-02-06T08:52:02.187Z,63.30
2018-02-06T08:54:30.529Z,63.83
2018-02-06T08:57:00.375Z,64.05
2018-02-06T08:59:28.720Z,63.57
2018-02-06T09:01:57.128Z,64.29
2018-02-06T09:04:25.635Z,64.06
2018-02-06T09:06:53.975Z,64.03
2018-02-06T09:09:23.185Z,64.34
2018-02-06T09:11:52.246Z,64.01
2018-02-06T09:14:20.577Z,63.56
2018-02-06T09:16:48.913Z,63.66
2018-02-06T09:19:17.394Z,65.32
2018-02-06T09:21:46.658Z,63.47
2018-02-06T09:24:15.023Z,63.41
2018-02-06T09:26:44.577Z,63.80
2018-02-06T09:29:12.916Z,65.57
2018-02-06T09:31:41.297Z,64.36
2018-02-06T09:34:09.752Z,64.45
2018-02-06T09:36:38.088Z,64.44
2018-02-06T09:39:07.178Z,64.07
2018-02-06T09:41:36.278Z,64.51
2018-02-06T09:44:05.374Z,64.83
2018-02-06T09:46:33.834Z,64.59
2018-02-06T09:49:03.769Z,64.52
2018-02-06T09:51:32.102Z,63.82
2018-02-06T09:54:00.462Z,63.42
2018-02-06T09:56:28.758Z,63.50
2018-02-06T09:58:57.127Z,64.05
2018-02-06T10:01:26.044Z,62.79
2018-02-06T10:03:54.361Z,63.18
2018-02-06T10:06:22.683Z,62.72
2018-02-06T10:08:51.771Z,63.05
2018-02-06T10:11:20.590Z,62.78
2018-02-06T10:13:49.765Z,62.93
2018-02-06T10:16:18.110Z,62.65
2018-02-06T10:18:46.426Z,62.26
2018-02-06T10:21:14.777Z,61.18
2018-02-06T10:23:43.095Z,59.86
2018-02-06T10:26:12.186Z,60.75
2018-02-06T10:28:41.371Z,60.81
2018-02-06T10:31:09.705Z,60.30
2018-02-06T10:33:38.050Z,59.35
2018-02-06T10:36:07.215Z,59.26
2018-02-06T10:38:35.834Z,58.28
2018-02-06T10:41:04.131Z,58.89
2018-02-06T10:43:32.696Z,58.53
2018-02-06T10:46:01.002Z,58.50
2018-02-06T10:48:29.444Z,59.01
2018-02-06T10:50:58.641Z,58.69
2018-02-06T10:53:26.947Z,59.98
2018-02-06T10:55:55.255Z,59.29
2018-02-06T10:58:23.551Z,60.52
2018-02-06T11:00:52.628Z,59.50
2018-02-06T11:03:20.938Z,60.72
2018-02-06T11:05:49.406Z,60.16
2018-02-06T11:08:17.777Z,60.94
2018-02-06T11:10:46.847Z,61.44
2018-02-06T11:13:15.290Z,61.89
2018-02-06T11:15:43.764Z,61.62
2018-02-06T11:18:12.260Z,62.37
2018-02-06T11:20:40.619Z,61.97
2018-02-06T11:23:09.565Z,61.63
2018-02-06T11:25:37.892Z,61.20
2018-02-06T11:28:06.186Z,60.85
2018-02-06T11:30:34.558Z,61.51
2018-02-06T11:33:02.923Z,60.23
2018-02-06T11:35:31.254Z,61.58
2018-02-06T11:38:00.355Z,61.19
2018-02-06T11:40:29.478Z,62.34
2018-02-06T11:42:58.798Z,61.20
2018-02-06T11:45:27.119Z,60.68
2018-02-06T11:47:56.200Z,60.78
2018-02-06T11:50:24.642Z,61.31
2018-02-06T11:52:53.036Z,60.04
2018-02-06T11:55:21.619Z,61.28
2018-02-06T11:57:49.941Z,60.77
2018-02-06T12:00:19.037Z,60.86
2018-02-06T12:02:47.389Z,60.43
2018-02-06T12:05:15.720Z,61.61
2018-02-06T12:07:44.264Z,61.08
2018-02-06T12:10:13.613Z,61.07
2018-02-06T12:12:42.020Z,59.70
2018-02-06T12:15:10.532Z,58.58
2018-02-06T12:17:38.889Z,57.90
2018-02-06T12:20:07.972Z,53.98
2018-02-06T12:22:37.339Z,54.33
2018-02-06T12:25:06.491Z,51.36
2018-02-06T12:27:36.150Z,50.51
2018-02-06T12:30:04.868Z,49.79
2018-02-06T12:32:33.979Z,51.66
2018-02-06T12:35:03.082Z,55.47
2018-02-06T12:37:31.427Z,54.74
2018-02-06T12:39:59.798Z,56.84
2018-02-06T12:42:28.492Z,55.75
2018-02-06T12:44:57.209Z,55.67
2018-02-06T12:47:25.818Z,55.47
2018-02-06T12:49:54.245Z,54.68
2018-02-06T12:52:23.353Z,54.52
2018-02-06T12:54:51.778Z,54.06
2018-02-06T12:57:21.033Z,54.65
2018-02-06T12:59:49.427Z,53.11
2018-02-06T13:02:17.792Z,54.56
2018-02-06T13:04:46.315Z,53.75
2018-02-06T13:07:15.477Z,53.79
2018-02-06T13:09:43.999Z,54.36
2018-02-06T13:12:12.473Z,54.54
2018-02-06T13:14:41.059Z,53.81
2018-02-06T13:17:09.422Z,53.25
2018-02-06T13:19:37.738Z,54.84
2018-02-06T13:22:06.369Z,55.12
2018-02-06T13:24:34.819Z,53.53
2018-02-06T13:27:04.131Z,53.12
2018-02-06T13:29:33.545Z,53.18
2018-02-06T13:32:03.028Z,52.05
2018-02-06T13:34:31.531Z,52.16
2018-02-06T13:36:59.881Z,51.68
2018-02-06T13:39:28.493Z,53.02
2018-02-06T13:41:57.801Z,53.70
2018-02-06T13:44:27.121Z,53.67
2018-02-06T13:46:56.654Z,53.05
2018-02-06T13:49:25.067Z,52.64
2018-02-06T13:51:54.423Z,52.26
